sensor_id;sensor_type;location;lat;lon;timestamp;temperature;humidity
47310;DHT22;33046;52.270;6.832;2023-04-03T00:01:20;7.20;92.30
47310;DHT22;33046;52.270;6.832;2023-04-03T00:03:27;7.20;92.40
47310;DHT22;33046;52.270;6.832;2023-04-03T00:05:34;7.20;92.40
47310;DHT22;33046;52.270;6.832;2023-04-03T00:07:41;7.20;92.50
47310;DHT22;33046;52.270;6.832;2023-04-03T00:09:49;7.20;92.50
47310;DHT22;33046;52.270;6.832;2023-04-03T00:11:55;7.10;92.60
47310;DHT22;33046;52.270;6.832;2023-04-03T00:14:02;7.10;92.60
47310;DHT22;33046;52.270;6.832;2023-04-03T00:16:10;7.10;92.90
47310;DHT22;33046;52.270;6.832;2023-04-03T00:18:17;7.10;92.90
47310;DHT22;33046;52.270;6.832;2023-04-03T00:20:24;7.10;93.10
47310;DHT22;33046;52.270;6.832;2023-04-03T00:22:31;7.00;93.10
47310;DHT22;33046;52.270;6.832;2023-04-03T00:24:38;7.00;93.10
47310;DHT22;33046;52.270;6.832;2023-04-03T00:26:46;7.00;93.30
47310;DHT22;33046;52.270;6.832;2023-04-03T00:28:53;7.00;93.30
47310;DHT22;33046;52.270;6.832;2023-04-03T00:30:59;7.00;93.50
47310;DHT22;33046;52.270;6.832;2023-04-03T00:33:07;6.90;93.50
47310;DHT22;33046;52.270;6.832;2023-04-03T00:35:14;6.90;93.60
47310;DHT22;33046;52.270;6.832;2023-04-03T00:37:20;6.90;93.70
47310;DHT22;33046;52.270;6.832;2023-04-03T00:39:27;6.90;93.80
47310;DHT22;33046;52.270;6.832;2023-04-03T00:41:34;6.90;93.90
47310;DHT22;33046;52.270;6.832;2023-04-03T00:43:42;6.90;93.90
47310;DHT22;33046;52.270;6.832;2023-04-03T00:45:51;6.90;94.00
47310;DHT22;33046;52.270;6.832;2023-04-03T00:47:58;6.80;94.00
47310;DHT22;33046;52.270;6.832;2023-04-03T00:50:07;6.90;94.00
47310;DHT22;33046;52.270;6.832;2023-04-03T00:52:16;6.80;94.10
47310;DHT22;33046;52.270;6.832;2023-04-03T00:54:25;6.80;94.20
47310;DHT22;33046;52.270;6.832;2023-04-03T00:56:32;6.80;94.20
47310;DHT22;33046;52.270;6.832;2023-04-03T00:58:43;6.80;94.30
47310;DHT22;33046;52.270;6.832;2023-04-03T01:00:54;6.80;94.30
47310;DHT22;33046;52.270;6.832;2023-04-03T01:03:02;6.80;94.40
47310;DHT22;33046;52.270;6.832;2023-04-03T01:05:10;6.80;94.50
47310;DHT22;33046;52.270;6.832;2023-04-03T01:07:19;6.70;94.50
47310;DHT22;33046;52.270;6.832;2023-04-03T01:09:26;6.70;94.50
47310;DHT22;33046;52.270;6.832;2023-04-03T01:11:34;6.70;94.50
47310;DHT22;33046;52.270;6.832;2023-04-03T01:13:42;6.70;94.60
47310;DHT22;33046;52.270;6.832;2023-04-03T01:15:49;6.60;94.50
47310;DHT22;33046;52.270;6.832;2023-04-03T01:17:57;6.60;94.60
47310;DHT22;33046;52.270;6.832;2023-04-03T01:20:46;6.60;94.60
47310;DHT22;33046;52.270;6.832;2023-04-03T01:23:01;6.60;94.70
47310;DHT22;33046;52.270;6.832;2023-04-03T01:25:09;6.60;94.70
47310;DHT22;33046;52.270;6.832;2023-04-03T01:27:16;6.50;94.70
47310;DHT22;33046;52.270;6.832;2023-04-03T01:29:24;6.50;94.70
47310;DHT22;33046;52.270;6.832;2023-04-03T01:33:56;6.50;94.80
47310;DHT22;33046;52.270;6.832;2023-04-03T01:36:05;6.40;94.80
47310;DHT22;33046;52.270;6.832;2023-04-03T01:38:12;6.40;94.90
47310;DHT22;33046;52.270;6.832;2023-04-03T01:40:19;6.40;94.90
47310;DHT22;33046;52.270;6.832;2023-04-03T01:42:26;6.40;94.90
47310;DHT22;33046;52.270;6.832;2023-04-03T01:44:33;6.40;94.90
47310;DHT22;33046;52.270;6.832;2023-04-03T01:46:40;6.40;94.90
47310;DHT22;33046;52.270;6.832;2023-04-03T01:48:47;6.40;94.90
47310;DHT22;33046;52.270;6.832;2023-04-03T01:50:55;6.30;94.80
47310;DHT22;33046;52.270;6.832;2023-04-03T01:53:02;6.30;94.90
47310;DHT22;33046;52.270;6.832;2023-04-03T01:55:09;6.30;94.90
47310;DHT22;33046;52.270;6.832;2023-04-03T01:57:16;6.30;94.90
47310;DHT22;33046;52.270;6.832;2023-04-03T01:59:23;6.30;94.80
47310;DHT22;33046;52.270;6.832;2023-04-03T02:01:31;6.30;94.80
47310;DHT22;33046;52.270;6.832;2023-04-03T02:03:37;6.30;94.70
47310;DHT22;33046;52.270;6.832;2023-04-03T02:05:44;6.20;94.70
47310;DHT22;33046;52.270;6.832;2023-04-03T02:07:53;6.20;94.80
47310;DHT22;33046;52.270;6.832;2023-04-03T02:10:00;6.20;94.80
47310;DHT22;33046;52.270;6.832;2023-04-03T02:12:07;6.20;94.70
47310;DHT22;33046;52.270;6.832;2023-04-03T02:14:13;6.20;94.70
47310;DHT22;33046;52.270;6.832;2023-04-03T02:16:20;6.10;94.70
47310;DHT22;33046;52.270;6.832;2023-04-03T02:18:28;6.10;94.70
47310;DHT22;33046;52.270;6.832;2023-04-03T02:20:35;6.10;94.70
47310;DHT22;33046;52.270;6.832;2023-04-03T02:22:42;6.10;94.70
47310;DHT22;33046;52.270;6.832;2023-04-03T02:24:50;6.10;94.70
47310;DHT22;33046;52.270;6.832;2023-04-03T02:26:57;6.00;94.70
47310;DHT22;33046;52.270;6.832;2023-04-03T02:29:04;6.00;94.60
47310;DHT22;33046;52.270;6.832;2023-04-03T02:31:11;6.00;94.60
47310;DHT22;33046;52.270;6.832;2023-04-03T02:33:20;6.00;94.70
47310;DHT22;33046;52.270;6.832;2023-04-03T02:35:28;6.00;94.80
47310;DHT22;33046;52.270;6.832;2023-04-03T02:37:37;5.90;94.90
47310;DHT22;33046;52.270;6.832;2023-04-03T02:39:44;5.90;95.00
47310;DHT22;33046;52.270;6.832;2023-04-03T02:41:52;5.90;95.10
47310;DHT22;33046;52.270;6.832;2023-04-03T02:44:04;5.90;95.10
47310;DHT22;33046;52.270;6.832;2023-04-03T02:46:11;5.90;95.20
47310;DHT22;33046;52.270;6.832;2023-04-03T02:48:18;5.80;95.10
47310;DHT22;33046;52.270;6.832;2023-04-03T02:50:24;5.80;95.10
47310;DHT22;33046;52.270;6.832;2023-04-03T02:52:31;5.80;95.10
47310;DHT22;33046;52.270;6.832;2023-04-03T02:54:38;5.80;95.10
47310;DHT22;33046;52.270;6.832;2023-04-03T02:56:47;5.80;95.10
47310;DHT22;33046;52.270;6.832;2023-04-03T02:58:55;5.70;95.10
47310;DHT22;33046;52.270;6.832;2023-04-03T03:01:03;5.70;95.10
47310;DHT22;33046;52.270;6.832;2023-04-03T03:03:10;5.70;95.00
47310;DHT22;33046;52.270;6.832;2023-04-03T03:05:17;5.70;95.00
47310;DHT22;33046;52.270;6.832;2023-04-03T03:07:24;5.70;95.00
47310;DHT22;33046;52.270;6.832;2023-04-03T03:09:31;5.70;94.90
47310;DHT22;33046;52.270;6.832;2023-04-03T03:11:38;5.70;94.90
47310;DHT22;33046;52.270;6.832;2023-04-03T03:13:45;5.60;94.90
47310;DHT22;33046;52.270;6.832;2023-04-03T03:15:53;5.60;94.90
47310;DHT22;33046;52.270;6.832;2023-04-03T03:18:00;5.60;94.80
47310;DHT22;33046;52.270;6.832;2023-04-03T03:20:08;5.60;94.80
47310;DHT22;33046;52.270;6.832;2023-04-03T03:22:16;5.60;94.90
47310;DHT22;33046;52.270;6.832;2023-04-03T03:24:23;5.60;94.90
47310;DHT22;33046;52.270;6.832;2023-04-03T03:26:30;5.60;94.90
47310;DHT22;33046;52.270;6.832;2023-04-03T03:28:38;5.50;94.90
47310;DHT22;33046;52.270;6.832;2023-04-03T03:30:45;5.50;94.90
47310;DHT22;33046;52.270;6.832;2023-04-03T03:32:54;5.50;94.90
47310;DHT22;33046;52.270;6.832;2023-04-03T03:35:01;5.50;95.00
47310;DHT22;33046;52.270;6.832;2023-04-03T03:37:08;5.50;95.00
47310;DHT22;33046;52.270;6.832;2023-04-03T03:39:15;5.50;95.00
47310;DHT22;33046;52.270;6.832;2023-04-03T03:41:22;5.40;95.00
47310;DHT22;33046;52.270;6.832;2023-04-03T03:43:29;5.40;95.00
47310;DHT22;33046;52.270;6.832;2023-04-03T03:45:35;5.40;95.10
47310;DHT22;33046;52.270;6.832;2023-04-03T03:47:42;5.40;95.10
47310;DHT22;33046;52.270;6.832;2023-04-03T03:49:50;5.30;95.10
47310;DHT22;33046;52.270;6.832;2023-04-03T03:51:57;5.30;95.10
47310;DHT22;33046;52.270;6.832;2023-04-03T03:54:05;5.30;95.20
47310;DHT22;33046;52.270;6.832;2023-04-03T03:56:12;5.30;95.30
47310;DHT22;33046;52.270;6.832;2023-04-03T03:58:20;5.30;95.20
47310;DHT22;33046;52.270;6.832;2023-04-03T04:00:27;5.20;95.10
47310;DHT22;33046;52.270;6.832;2023-04-03T04:02:35;5.20;95.00
47310;DHT22;33046;52.270;6.832;2023-04-03T04:04:43;5.20;95.10
47310;DHT22;33046;52.270;6.832;2023-04-03T04:06:51;5.20;95.00
47310;DHT22;33046;52.270;6.832;2023-04-03T04:08:59;5.20;95.00
47310;DHT22;33046;52.270;6.832;2023-04-03T04:11:06;5.20;95.00
47310;DHT22;33046;52.270;6.832;2023-04-03T04:13:13;5.10;95.00
47310;DHT22;33046;52.270;6.832;2023-04-03T04:15:20;5.10;94.90
47310;DHT22;33046;52.270;6.832;2023-04-03T04:17:28;5.20;95.10
47310;DHT22;33046;52.270;6.832;2023-04-03T04:19:35;5.10;94.90
47310;DHT22;33046;52.270;6.832;2023-04-03T04:21:42;5.10;94.90
47310;DHT22;33046;52.270;6.832;2023-04-03T04:23:50;5.10;94.80
47310;DHT22;33046;52.270;6.832;2023-04-03T04:25:58;5.10;94.80
47310;DHT22;33046;52.270;6.832;2023-04-03T04:28:06;5.10;94.80
47310;DHT22;33046;52.270;6.832;2023-04-03T04:30:15;5.00;94.80
47310;DHT22;33046;52.270;6.832;2023-04-03T04:32:24;5.00;94.80
47310;DHT22;33046;52.270;6.832;2023-04-03T04:34:31;5.00;94.80
47310;DHT22;33046;52.270;6.832;2023-04-03T04:36:40;5.00;94.80
47310;DHT22;33046;52.270;6.832;2023-04-03T04:38:47;4.90;94.80
47310;DHT22;33046;52.270;6.832;2023-04-03T04:40:55;4.90;94.90
47310;DHT22;33046;52.270;6.832;2023-04-03T04:43:03;4.90;95.00
47310;DHT22;33046;52.270;6.832;2023-04-03T04:45:10;4.90;95.00
47310;DHT22;33046;52.270;6.832;2023-04-03T04:47:19;4.90;95.10
47310;DHT22;33046;52.270;6.832;2023-04-03T04:49:26;4.90;95.10
47310;DHT22;33046;52.270;6.832;2023-04-03T04:51:33;4.90;95.10
47310;DHT22;33046;52.270;6.832;2023-04-03T04:53:42;4.90;95.50
47310;DHT22;33046;52.270;6.832;2023-04-03T04:55:52;4.90;95.40
47310;DHT22;33046;52.270;6.832;2023-04-03T04:58:00;4.90;95.40
47310;DHT22;33046;52.270;6.832;2023-04-03T05:00:08;4.80;95.60
47310;DHT22;33046;52.270;6.832;2023-04-03T05:02:16;4.80;95.30
47310;DHT22;33046;52.270;6.832;2023-04-03T05:04:24;4.80;95.50
47310;DHT22;33046;52.270;6.832;2023-04-03T05:06:36;4.80;95.30
47310;DHT22;33046;52.270;6.832;2023-04-03T05:08:46;4.80;95.20
47310;DHT22;33046;52.270;6.832;2023-04-03T05:10:53;4.80;95.40
47310;DHT22;33046;52.270;6.832;2023-04-03T05:13:03;4.80;95.70
47310;DHT22;33046;52.270;6.832;2023-04-03T05:15:10;4.70;95.20
47310;DHT22;33046;52.270;6.832;2023-04-03T05:17:17;4.70;95.30
47310;DHT22;33046;52.270;6.832;2023-04-03T05:19:28;4.70;95.20
47310;DHT22;33046;52.270;6.832;2023-04-03T05:21:37;4.70;95.20
47310;DHT22;33046;52.270;6.832;2023-04-03T05:23:48;4.70;95.20
47310;DHT22;33046;52.270;6.832;2023-04-03T05:25:55;4.60;95.30
47310;DHT22;33046;52.270;6.832;2023-04-03T05:28:04;4.60;95.20
47310;DHT22;33046;52.270;6.832;2023-04-03T05:30:12;4.60;95.30
47310;DHT22;33046;52.270;6.832;2023-04-03T05:32:20;4.60;95.30
47310;DHT22;33046;52.270;6.832;2023-04-03T05:34:32;4.60;95.30
47310;DHT22;33046;52.270;6.832;2023-04-03T05:36:39;4.60;95.40
47310;DHT22;33046;52.270;6.832;2023-04-03T05:38:48;4.50;95.40
47310;DHT22;33046;52.270;6.832;2023-04-03T05:40:55;4.50;95.40
47310;DHT22;33046;52.270;6.832;2023-04-03T05:43:03;4.50;95.40
47310;DHT22;33046;52.270;6.832;2023-04-03T05:45:14;4.50;95.50
47310;DHT22;33046;52.270;6.832;2023-04-03T05:47:21;4.50;95.50
47310;DHT22;33046;52.270;6.832;2023-04-03T05:49:28;4.60;95.50
47310;DHT22;33046;52.270;6.832;2023-04-03T05:51:36;4.60;95.60
47310;DHT22;33046;52.270;6.832;2023-04-03T05:54:00;4.60;95.60
47310;DHT22;33046;52.270;6.832;2023-04-03T05:56:10;4.60;95.50
47310;DHT22;33046;52.270;6.832;2023-04-03T05:58:20;4.60;95.50
47310;DHT22;33046;52.270;6.832;2023-04-03T06:00:30;4.60;95.50
47310;DHT22;33046;52.270;6.832;2023-04-03T06:02:41;4.60;95.60
47310;DHT22;33046;52.270;6.832;2023-04-03T06:04:54;4.60;95.60
47310;DHT22;33046;52.270;6.832;2023-04-03T06:07:01;4.60;95.70
47310;DHT22;33046;52.270;6.832;2023-04-03T06:09:08;4.60;96.20
47310;DHT22;33046;52.270;6.832;2023-04-03T06:11:15;4.60;95.70
47310;DHT22;33046;52.270;6.832;2023-04-03T06:13:23;4.70;95.60
47310;DHT22;33046;52.270;6.832;2023-04-03T06:15:30;4.70;95.60
47310;DHT22;33046;52.270;6.832;2023-04-03T06:17:37;4.70;95.60
47310;DHT22;33046;52.270;6.832;2023-04-03T06:19:44;4.70;95.50
47310;DHT22;33046;52.270;6.832;2023-04-03T06:21:51;4.70;95.30
47310;DHT22;33046;52.270;6.832;2023-04-03T06:23:58;4.70;95.50
47310;DHT22;33046;52.270;6.832;2023-04-03T06:26:05;4.80;95.40
47310;DHT22;33046;52.270;6.832;2023-04-03T06:28:12;4.80;95.20
47310;DHT22;33046;52.270;6.832;2023-04-03T06:30:21;4.80;95.10
47310;DHT22;33046;52.270;6.832;2023-04-03T06:32:27;4.90;95.20
47310;DHT22;33046;52.270;6.832;2023-04-03T06:34:34;4.90;95.50
47310;DHT22;33046;52.270;6.832;2023-04-03T06:36:41;4.90;95.10
47310;DHT22;33046;52.270;6.832;2023-04-03T06:38:48;4.90;95.00
47310;DHT22;33046;52.270;6.832;2023-04-03T06:40:55;4.90;95.00
47310;DHT22;33046;52.270;6.832;2023-04-03T06:43:02;5.00;95.10
47310;DHT22;33046;52.270;6.832;2023-04-03T06:45:09;5.00;95.10
47310;DHT22;33046;52.270;6.832;2023-04-03T06:47:18;5.00;94.80
47310;DHT22;33046;52.270;6.832;2023-04-03T06:49:25;5.10;94.70
47310;DHT22;33046;52.270;6.832;2023-04-03T06:51:31;5.10;95.00
47310;DHT22;33046;52.270;6.832;2023-04-03T06:53:38;5.10;95.10
47310;DHT22;33046;52.270;6.832;2023-04-03T06:55:45;5.10;94.70
47310;DHT22;33046;52.270;6.832;2023-04-03T06:57:52;5.20;94.80
47310;DHT22;33046;52.270;6.832;2023-04-03T06:59:59;5.30;94.80
47310;DHT22;33046;52.270;6.832;2023-04-03T07:02:06;5.30;94.40
47310;DHT22;33046;52.270;6.832;2023-04-03T07:04:14;5.40;94.50
47310;DHT22;33046;52.270;6.832;2023-04-03T07:06:21;5.50;94.10
47310;DHT22;33046;52.270;6.832;2023-04-03T07:08:28;5.50;93.50
47310;DHT22;33046;52.270;6.832;2023-04-03T07:10:35;5.60;93.30
47310;DHT22;33046;52.270;6.832;2023-04-03T07:12:41;5.70;92.90
47310;DHT22;33046;52.270;6.832;2023-04-03T07:14:48;5.80;93.40
47310;DHT22;33046;52.270;6.832;2023-04-03T07:16:55;5.90;93.50
47310;DHT22;33046;52.270;6.832;2023-04-03T07:19:02;6.00;92.80
47310;DHT22;33046;52.270;6.832;2023-04-03T07:21:10;6.00;92.30
47310;DHT22;33046;52.270;6.832;2023-04-03T07:23:17;6.10;91.90
47310;DHT22;33046;52.270;6.832;2023-04-03T07:25:24;6.20;92.40
47310;DHT22;33046;52.270;6.832;2023-04-03T07:27:31;6.30;92.30
47310;DHT22;33046;52.270;6.832;2023-04-03T07:29:37;6.30;92.20
47310;DHT22;33046;52.270;6.832;2023-04-03T07:31:44;6.40;91.30
47310;DHT22;33046;52.270;6.832;2023-04-03T07:33:51;6.40;91.10
47310;DHT22;33046;52.270;6.832;2023-04-03T07:35:58;6.40;91.40
47310;DHT22;33046;52.270;6.832;2023-04-03T07:38:07;6.50;91.70
47310;DHT22;33046;52.270;6.832;2023-04-03T07:40:14;6.60;91.80
47310;DHT22;33046;52.270;6.832;2023-04-03T07:42:20;6.60;91.40
47310;DHT22;33046;52.270;6.832;2023-04-03T07:44:27;6.60;91.10
47310;DHT22;33046;52.270;6.832;2023-04-03T07:46:34;6.70;90.60
47310;DHT22;33046;52.270;6.832;2023-04-03T07:48:41;6.70;90.80
47310;DHT22;33046;52.270;6.832;2023-04-03T07:50:48;6.80;91.30
47310;DHT22;33046;52.270;6.832;2023-04-03T07:52:55;6.80;90.50
47310;DHT22;33046;52.270;6.832;2023-04-03T07:55:04;6.90;90.40
47310;DHT22;33046;52.270;6.832;2023-04-03T07:57:11;6.90;90.30
47310;DHT22;33046;52.270;6.832;2023-04-03T07:59:18;7.00;90.50
47310;DHT22;33046;52.270;6.832;2023-04-03T08:01:25;7.10;88.70
47310;DHT22;33046;52.270;6.832;2023-04-03T08:03:31;7.10;89.40
47310;DHT22;33046;52.270;6.832;2023-04-03T08:05:39;7.10;87.70
47310;DHT22;33046;52.270;6.832;2023-04-03T08:07:47;7.20;87.50
47310;DHT22;33046;52.270;6.832;2023-04-03T08:09:54;7.20;85.60
47310;DHT22;33046;52.270;6.832;2023-04-03T08:12:02;7.30;86.60
47310;DHT22;33046;52.270;6.832;2023-04-03T08:14:09;7.30;86.30
47310;DHT22;33046;52.270;6.832;2023-04-03T08:16:18;7.40;86.70
47310;DHT22;33046;52.270;6.832;2023-04-03T08:18:26;7.40;86.20
47310;DHT22;33046;52.270;6.832;2023-04-03T08:20:33;7.50;84.60
47310;DHT22;33046;52.270;6.832;2023-04-03T08:22:40;7.50;84.40
47310;DHT22;33046;52.270;6.832;2023-04-03T08:24:47;7.60;83.70
47310;DHT22;33046;52.270;6.832;2023-04-03T08:27:03;7.60;82.50
47310;DHT22;33046;52.270;6.832;2023-04-03T08:29:10;7.70;82.60
47310;DHT22;33046;52.270;6.832;2023-04-03T08:31:18;7.70;83.80
47310;DHT22;33046;52.270;6.832;2023-04-03T08:33:25;7.80;83.70
47310;DHT22;33046;52.270;6.832;2023-04-03T08:35:32;7.80;81.30
47310;DHT22;33046;52.270;6.832;2023-04-03T08:37:39;7.80;78.00
47310;DHT22;33046;52.270;6.832;2023-04-03T08:39:46;7.80;78.80
47310;DHT22;33046;52.270;6.832;2023-04-03T08:41:55;7.80;78.80
47310;DHT22;33046;52.270;6.832;2023-04-03T08:44:20;7.90;77.30
47310;DHT22;33046;52.270;6.832;2023-04-03T08:46:40;7.90;75.00
47310;DHT22;33046;52.270;6.832;2023-04-03T08:48:50;8.00;75.50
47310;DHT22;33046;52.270;6.832;2023-04-03T08:50:59;8.10;74.70
47310;DHT22;33046;52.270;6.832;2023-04-03T08:53:13;8.20;75.80
47310;DHT22;33046;52.270;6.832;2023-04-03T08:55:24;8.30;74.80
47310;DHT22;33046;52.270;6.832;2023-04-03T08:57:34;8.30;74.40
47310;DHT22;33046;52.270;6.832;2023-04-03T08:59:43;8.40;76.00
47310;DHT22;33046;52.270;6.832;2023-04-03T09:01:50;8.40;75.40
47310;DHT22;33046;52.270;6.832;2023-04-03T09:03:57;8.40;72.10
47310;DHT22;33046;52.270;6.832;2023-04-03T09:06:10;8.50;72.80
47310;DHT22;33046;52.270;6.832;2023-04-03T09:08:24;8.60;71.30
47310;DHT22;33046;52.270;6.832;2023-04-03T09:10:35;8.60;71.70
47310;DHT22;33046;52.270;6.832;2023-04-03T09:12:46;8.60;70.60
47310;DHT22;33046;52.270;6.832;2023-04-03T09:15:02;8.70;70.40
47310;DHT22;33046;52.270;6.832;2023-04-03T09:17:21;8.80;69.10
47310;DHT22;33046;52.270;6.832;2023-04-03T09:19:38;8.80;71.10
47310;DHT22;33046;52.270;6.832;2023-04-03T09:21:47;8.90;70.10
47310;DHT22;33046;52.270;6.832;2023-04-03T09:23:55;9.00;70.60
47310;DHT22;33046;52.270;6.832;2023-04-03T09:26:08;9.00;68.70
47310;DHT22;33046;52.270;6.832;2023-04-03T09:28:16;9.00;69.40
47310;DHT22;33046;52.270;6.832;2023-04-03T09:30:25;9.10;67.70
47310;DHT22;33046;52.270;6.832;2023-04-03T09:32:33;9.10;68.20
47310;DHT22;33046;52.270;6.832;2023-04-03T09:34:41;9.20;68.20
47310;DHT22;33046;52.270;6.832;2023-04-03T09:36:49;9.20;66.90
47310;DHT22;33046;52.270;6.832;2023-04-03T09:39:03;9.30;66.60
47310;DHT22;33046;52.270;6.832;2023-04-03T09:41:16;9.40;67.20
47310;DHT22;33046;52.270;6.832;2023-04-03T09:43:26;9.40;68.10
47310;DHT22;33046;52.270;6.832;2023-04-03T09:45:35;9.50;68.20
47310;DHT22;33046;52.270;6.832;2023-04-03T09:47:42;9.50;68.50
47310;DHT22;33046;52.270;6.832;2023-04-03T09:49:49;9.50;66.90
47310;DHT22;33046;52.270;6.832;2023-04-03T09:51:55;9.50;66.70
47310;DHT22;33046;52.270;6.832;2023-04-03T09:54:24;9.60;64.10
47310;DHT22;33046;52.270;6.832;2023-04-03T09:56:32;9.60;63.10
47310;DHT22;33046;52.270;6.832;2023-04-03T09:58:40;9.60;64.40
47310;DHT22;33046;52.270;6.832;2023-04-03T10:00:57;9.70;67.10
47310;DHT22;33046;52.270;6.832;2023-04-03T10:03:23;9.70;64.20
47310;DHT22;33046;52.270;6.832;2023-04-03T10:05:33;9.80;66.10
47310;DHT22;33046;52.270;6.832;2023-04-03T10:07:40;9.80;67.10
47310;DHT22;33046;52.270;6.832;2023-04-03T10:09:55;9.80;65.10
47310;DHT22;33046;52.270;6.832;2023-04-03T10:12:04;9.90;66.60
47310;DHT22;33046;52.270;6.832;2023-04-03T10:14:16;9.90;67.00
47310;DHT22;33046;52.270;6.832;2023-04-03T10:16:28;9.90;65.80
47310;DHT22;33046;52.270;6.832;2023-04-03T10:18:40;10.00;66.70
47310;DHT22;33046;52.270;6.832;2023-04-03T10:20:50;10.10;64.60
47310;DHT22;33046;52.270;6.832;2023-04-03T10:23:05;10.10;62.70
47310;DHT22;33046;52.270;6.832;2023-04-03T10:25:21;10.20;65.10
47310;DHT22;33046;52.270;6.832;2023-04-03T10:27:39;10.20;64.20
47310;DHT22;33046;52.270;6.832;2023-04-03T10:29:50;10.20;62.80
47310;DHT22;33046;52.270;6.832;2023-04-03T10:32:09;10.20;63.70
47310;DHT22;33046;52.270;6.832;2023-04-03T10:34:23;10.20;63.60
47310;DHT22;33046;52.270;6.832;2023-04-03T10:36:38;10.30;62.80
47310;DHT22;33046;52.270;6.832;2023-04-03T10:38:57;10.30;63.00
47310;DHT22;33046;52.270;6.832;2023-04-03T10:41:12;10.40;64.10
47310;DHT22;33046;52.270;6.832;2023-04-03T10:43:26;10.40;63.50
47310;DHT22;33046;52.270;6.832;2023-04-03T10:45:49;10.30;65.80
47310;DHT22;33046;52.270;6.832;2023-04-03T10:48:04;10.40;65.50
47310;DHT22;33046;52.270;6.832;2023-04-03T10:50:29;10.40;67.30
47310;DHT22;33046;52.270;6.832;2023-04-03T10:52:45;10.50;64.90
47310;DHT22;33046;52.270;6.832;2023-04-03T10:55:00;10.60;65.30
47310;DHT22;33046;52.270;6.832;2023-04-03T10:57:10;10.50;65.50
47310;DHT22;33046;52.270;6.832;2023-04-03T10:59:23;10.40;64.00
47310;DHT22;33046;52.270;6.832;2023-04-03T11:01:33;10.50;64.20
47310;DHT22;33046;52.270;6.832;2023-04-03T11:03:44;10.50;64.90
47310;DHT22;33046;52.270;6.832;2023-04-03T11:05:53;10.60;65.00
47310;DHT22;33046;52.270;6.832;2023-04-03T11:08:04;10.60;66.00
47310;DHT22;33046;52.270;6.832;2023-04-03T11:10:15;10.60;64.10
47310;DHT22;33046;52.270;6.832;2023-04-03T11:12:27;10.50;63.90
47310;DHT22;33046;52.270;6.832;2023-04-03T11:14:36;10.50;63.20
47310;DHT22;33046;52.270;6.832;2023-04-03T11:16:47;10.60;65.90
47310;DHT22;33046;52.270;6.832;2023-04-03T11:19:03;10.70;66.80
47310;DHT22;33046;52.270;6.832;2023-04-03T11:21:16;10.70;65.10
47310;DHT22;33046;52.270;6.832;2023-04-03T11:23:25;10.80;67.20
47310;DHT22;33046;52.270;6.832;2023-04-03T11:25:36;10.90;66.40
47310;DHT22;33046;52.270;6.832;2023-04-03T11:27:45;10.60;62.70
47310;DHT22;33046;52.270;6.832;2023-04-03T11:29:54;10.60;63.00
47310;DHT22;33046;52.270;6.832;2023-04-03T11:32:17;10.70;63.70
47310;DHT22;33046;52.270;6.832;2023-04-03T11:34:34;10.80;63.90
47310;DHT22;33046;52.270;6.832;2023-04-03T11:36:44;10.80;63.30
47310;DHT22;33046;52.270;6.832;2023-04-03T11:38:54;10.80;63.30
47310;DHT22;33046;52.270;6.832;2023-04-03T11:41:02;10.90;62.80
47310;DHT22;33046;52.270;6.832;2023-04-03T11:43:22;10.90;62.80
47310;DHT22;33046;52.270;6.832;2023-04-03T11:45:35;10.90;61.50
47310;DHT22;33046;52.270;6.832;2023-04-03T11:47:45;10.80;62.60
47310;DHT22;33046;52.270;6.832;2023-04-03T11:49:59;10.90;63.70
47310;DHT22;33046;52.270;6.832;2023-04-03T11:52:09;11.00;64.50
47310;DHT22;33046;52.270;6.832;2023-04-03T11:54:48;11.00;64.80
47310;DHT22;33046;52.270;6.832;2023-04-03T11:56:54;11.10;64.50
47310;DHT22;33046;52.270;6.832;2023-04-03T11:59:25;11.10;63.80
47310;DHT22;33046;52.270;6.832;2023-04-03T12:01:46;11.00;64.20
47310;DHT22;33046;52.270;6.832;2023-04-03T12:04:11;11.00;64.90
47310;DHT22;33046;52.270;6.832;2023-04-03T12:09:00;11.20;64.70
47310;DHT22;33046;52.270;6.832;2023-04-03T12:11:14;11.20;63.00
47310;DHT22;33046;52.270;6.832;2023-04-03T12:13:21;11.20;63.00
47310;DHT22;33046;52.270;6.832;2023-04-03T12:15:52;11.20;63.40
47310;DHT22;33046;52.270;6.832;2023-04-03T12:20:57;11.20;63.30
47310;DHT22;33046;52.270;6.832;2023-04-03T12:23:07;11.20;62.60
47310;DHT22;33046;52.270;6.832;2023-04-03T12:25:43;11.20;65.40
47310;DHT22;33046;52.270;6.832;2023-04-03T12:27:54;11.30;64.20
47310;DHT22;33046;52.270;6.832;2023-04-03T12:30:07;11.30;64.00
47310;DHT22;33046;52.270;6.832;2023-04-03T12:32:29;11.40;65.00
47310;DHT22;33046;52.270;6.832;2023-04-03T12:34:55;11.40;63.90
47310;DHT22;33046;52.270;6.832;2023-04-03T12:37:09;11.40;64.70
47310;DHT22;33046;52.270;6.832;2023-04-03T12:39:37;11.20;63.80
47310;DHT22;33046;52.270;6.832;2023-04-03T12:41:55;11.30;65.30
47310;DHT22;33046;52.270;6.832;2023-04-03T12:46:50;11.10;63.70
47310;DHT22;33046;52.270;6.832;2023-04-03T12:48:58;11.00;63.20
47310;DHT22;33046;52.270;6.832;2023-04-03T12:51:06;11.00;63.30
47310;DHT22;33046;52.270;6.832;2023-04-03T12:53:16;11.00;65.20
47310;DHT22;33046;52.270;6.832;2023-04-03T12:55:24;11.20;64.90
47310;DHT22;33046;52.270;6.832;2023-04-03T12:57:33;11.20;65.60
47310;DHT22;33046;52.270;6.832;2023-04-03T12:59:39;11.20;65.90
47310;DHT22;33046;52.270;6.832;2023-04-03T13:01:54;11.20;65.60
47310;DHT22;33046;52.270;6.832;2023-04-03T13:04:00;11.20;62.80
47310;DHT22;33046;52.270;6.832;2023-04-03T13:06:14;11.30;65.20
47310;DHT22;33046;52.270;6.832;2023-04-03T13:08:23;11.20;65.40
47310;DHT22;33046;52.270;6.832;2023-04-03T13:10:30;11.30;66.70
47310;DHT22;33046;52.270;6.832;2023-04-03T13:12:50;11.30;66.60
47310;DHT22;33046;52.270;6.832;2023-04-03T13:14:59;11.40;66.50
47310;DHT22;33046;52.270;6.832;2023-04-03T13:17:12;11.40;65.30
47310;DHT22;33046;52.270;6.832;2023-04-03T13:19:20;11.40;65.90
47310;DHT22;33046;52.270;6.832;2023-04-03T13:21:30;11.30;64.70
47310;DHT22;33046;52.270;6.832;2023-04-03T13:23:40;11.30;65.00
47310;DHT22;33046;52.270;6.832;2023-04-03T13:25:49;11.30;63.50
47310;DHT22;33046;52.270;6.832;2023-04-03T13:27:59;11.30;65.40
47310;DHT22;33046;52.270;6.832;2023-04-03T13:30:25;11.40;65.80
47310;DHT22;33046;52.270;6.832;2023-04-03T13:32:32;11.40;65.90
47310;DHT22;33046;52.270;6.832;2023-04-03T13:34:42;11.50;65.40
47310;DHT22;33046;52.270;6.832;2023-04-03T13:36:57;11.50;65.20
47310;DHT22;33046;52.270;6.832;2023-04-03T13:39:07;11.50;64.50
47310;DHT22;33046;52.270;6.832;2023-04-03T13:41:29;11.50;64.90
47310;DHT22;33046;52.270;6.832;2023-04-03T13:43:38;11.60;65.40
47310;DHT22;33046;52.270;6.832;2023-04-03T13:45:59;11.50;64.50
47310;DHT22;33046;52.270;6.832;2023-04-03T13:48:15;11.50;63.40
47310;DHT22;33046;52.270;6.832;2023-04-03T13:50:28;11.50;62.90
47310;DHT22;33046;52.270;6.832;2023-04-03T13:52:41;11.60;63.60
47310;DHT22;33046;52.270;6.832;2023-04-03T13:54:52;11.60;65.90
47310;DHT22;33046;52.270;6.832;2023-04-03T13:57:01;11.50;65.50
47310;DHT22;33046;52.270;6.832;2023-04-03T13:59:23;11.60;65.20
47310;DHT22;33046;52.270;6.832;2023-04-03T14:01:40;11.60;65.30